Time;durP1;ratioP1;P1;durP2;ratioP2;P2;SDS_P1;SDS_P2;PMS_P1;PMS_P2;Temp;Humidity;BMP_temperature;BMP_pressure;BME280_temperature;BME280_humidity;BME280_pressure;Samples;Min_cycle;Max_cycle;Signal;HPM_P1;HPM_P2
2022/10/19 00:01:13;;;;;;;;;;;20.40;72.70;;;;;;5055733;28;876;-69
2022/10/19 00:03:39;;;;;;;;;;;20.40;72.70;;;;;;5055668;28;1959;-69
2022/10/19 00:06:15;;;;;;;;;;;20.40;72.70;;;;;;5058206;28;1248;-69
2022/10/19 00:08:40;;;;;;;;;;;20.40;72.70;;;;;;5056229;28;790;-71
2022/10/19 00:11:06;;;;;;;;;;;20.40;72.70;;;;;;5057747;28;959;-72
2022/10/19 00:13:31;;;;;;;;;;;20.40;72.70;;;;;;5060565;28;894;-71
2022/10/19 00:15:57;;;;;;;;;;;20.40;72.70;;;;;;5057268;28;1317;-69
2022/10/19 00:18:22;;;;;;;;;;;20.40;72.70;;;;;;5058788;28;1509;-70
2022/10/19 00:20:48;;;;;;;;;;;20.40;72.70;;;;;;5058186;28;1064;-69
2022/10/19 00:23:13;;;;;;;;;;;20.40;72.70;;;;;;5055457;28;1973;-70
2022/10/19 00:25:39;;;;;;;;;;;20.40;72.70;;;;;;5056375;28;1664;-69
2022/10/19 00:28:04;;;;;;;;;;;20.40;72.80;;;;;;5056499;28;919;-69
2022/10/19 00:30:30;;;;;;;;;;;20.40;72.70;;;;;;5056518;28;1038;-72
2022/10/19 00:32:55;;;;;;;;;;;20.40;72.70;;;;;;5055006;28;1386;-71
2022/10/19 00:35:21;;;;;;;;;;;20.40;72.70;;;;;;5055204;28;1254;-72
2022/10/19 00:37:46;;;;;;;;;;;20.40;72.70;;;;;;5062567;28;1218;-71
2022/10/19 00:40:11;;;;;;;;;;;20.40;72.70;;;;;;5062215;28;1048;-71
2022/10/19 00:42:37;;;;;;;;;;;20.40;73.50;;;;;;5060522;28;1026;-71
2022/10/19 00:45:04;;;;;;;;;;;20.40;72.70;;;;;;5062289;28;1902;-71
2022/10/19 00:47:30;;;;;;;;;;;20.40;72.70;;;;;;5060078;28;858;-71
2022/10/19 00:49:55;;;;;;;;;;;20.40;72.70;;;;;;5060736;28;827;-71
2022/10/19 00:52:21;;;;;;;;;;;20.40;72.70;;;;;;5061987;28;1650;-71
2022/10/19 00:54:46;;;;;;;;;;;20.40;72.70;;;;;;5060773;28;1700;-71
2022/10/19 00:57:12;;;;;;;;;;;20.40;72.80;;;;;;5057252;28;1287;-71
2022/10/19 00:59:37;;;;;;;;;;;20.40;72.80;;;;;;5061930;28;829;-71
2022/10/19 01:02:03;;;;;;;;;;;20.40;72.80;;;;;;5062956;28;820;-71
2022/10/19 01:04:28;;;;;;;;;;;20.40;72.70;;;;;;5059032;28;1898;-71
2022/10/19 01:06:54;;;;;;;;;;;20.40;72.80;;;;;;5060999;28;1719;-71
2022/10/19 01:09:19;;;;;;;;;;;20.40;72.80;;;;;;5060245;28;1033;-71
2022/10/19 01:11:51;;;;;;;;;;;20.40;72.80;;;;;;5055328;28;855;-71
2022/10/19 01:14:16;;;;;;;;;;;20.30;72.70;;;;;;5057183;28;1002;-71
2022/10/19 01:16:45;;;;;;;;;;;20.40;72.70;;;;;;5060966;28;1326;-71
2022/10/19 01:19:10;;;;;;;;;;;20.40;72.80;;;;;;5060758;28;1280;-70
2022/10/19 01:21:41;;;;;;;;;;;20.30;72.70;;;;;;5059519;28;828;-71
2022/10/19 01:24:21;;;;;;;;;;;20.40;72.70;;;;;;5061649;28;1894;-71
2022/10/19 01:27:06;;;;;;;;;;;20.30;72.70;;;;;;5058130;28;1399;-70
2022/10/19 01:29:31;;;;;;;;;;;20.40;72.80;;;;;;5063130;28;974;-70
2022/10/19 01:32:16;;;;;;;;;;;20.40;72.70;;;;;;5058368;28;1437;-71
2022/10/19 01:34:56;;;;;;;;;;;20.40;72.70;;;;;;5060035;28;972;-70
2022/10/19 01:37:28;;;;;;;;;;;20.40;72.80;;;;;;5058517;28;1352;-71
2022/10/19 01:39:57;;;;;;;;;;;20.40;72.80;;;;;;5056545;28;1014;-69
2022/10/19 01:42:25;;;;;;;;;;;20.40;72.80;;;;;;5060107;28;825;-71
2022/10/19 01:44:53;;;;;;;;;;;20.30;72.70;;;;;;5060792;28;1965;-70
2022/10/19 01:47:19;;;;;;;;;;;20.40;72.80;;;;;;5060522;28;1289;-71
2022/10/19 01:49:54;;;;;;;;;;;20.40;72.80;;;;;;5058580;28;973;-69
2022/10/19 01:52:19;;;;;;;;;;;20.30;72.80;;;;;;5057441;28;877;-72
2022/10/19 01:54:46;;;;;;;;;;;20.40;72.80;;;;;;5056547;28;1239;-73
2022/10/19 01:57:12;;;;;;;;;;;20.40;72.80;;;;;;5059300;28;1360;-74
2022/10/19 01:59:38;;;;;;;;;;;20.40;72.80;;;;;;5061839;28;1005;-73
2022/10/19 02:02:03;;;;;;;;;;;20.40;72.80;;;;;;5060142;28;847;-72
2022/10/19 02:04:29;;;;;;;;;;;20.40;72.80;;;;;;5061188;28;1964;-71
2022/10/19 02:06:54;;;;;;;;;;;20.40;72.80;;;;;;5060611;28;1299;-70
2022/10/19 02:09:20;;;;;;;;;;;20.40;72.80;;;;;;5059605;28;944;-71
2022/10/19 02:11:46;;;;;;;;;;;20.40;72.80;;;;;;5060420;28;919;-71
2022/10/19 02:14:12;;;;;;;;;;;20.30;72.70;;;;;;5059780;28;895;-71
2022/10/19 02:16:45;;;;;;;;;;;20.40;72.80;;;;;;5062045;28;1260;-71
2022/10/19 02:19:11;;;;;;;;;;;20.40;72.80;;;;;;5060810;28;1542;-71
2022/10/19 02:21:37;;;;;;;;;;;20.40;72.80;;;;;;5055417;28;978;-71
2022/10/19 02:24:02;;;;;;;;;;;20.40;72.80;;;;;;5059238;28;1984;-71
2022/10/19 02:26:28;;;;;;;;;;;20.40;72.80;;;;;;5057244;28;1317;-70
2022/10/19 02:28:53;;;;;;;;;;;20.40;72.80;;;;;;5058705;28;906;-71
2022/10/19 02:31:19;;;;;;;;;;;20.40;72.80;;;;;;5058518;28;1381;-70
2022/10/19 02:33:44;;;;;;;;;;;20.30;72.70;;;;;;5059561;28;1315;-71
2022/10/19 02:36:10;;;;;;;;;;;20.30;72.80;;;;;;5057735;28;1364;-70
2022/10/19 02:38:35;;;;;;;;;;;20.40;72.80;;;;;;5062063;28;851;-70
2022/10/19 02:41:17;;;;;;;;;;;20.40;72.80;;;;;;5057896;28;864;-70
2022/10/19 02:43:43;;;;;;;;;;;20.40;72.80;;;;;;5055725;28;1980;-70
2022/10/19 02:46:10;;;;;;;;;;;20.30;72.80;;;;;;5059477;28;1267;-71
2022/10/19 02:48:36;;;;;;;;;;;20.30;72.80;;;;;;5059575;28;854;-70
2022/10/19 02:51:01;;;;;;;;;;;20.30;72.70;;;;;;5061723;28;2113;-71
2022/10/19 02:53:27;;;;;;;;;;;20.40;72.80;;;;;;5058281;28;2152;-70
2022/10/19 02:55:52;;;;;;;;;;;20.40;72.80;;;;;;5061900;28;1359;-71
2022/10/19 02:58:18;;;;;;;;;;;20.40;72.80;;;;;;5056426;28;781;-71
2022/10/19 03:00:43;;;;;;;;;;;20.40;72.80;;;;;;5060596;28;827;-70
2022/10/19 03:03:09;;;;;;;;;;;20.40;72.80;;;;;;5058388;28;818;-71
2022/10/19 03:05:34;;;;;;;;;;;20.30;72.70;;;;;;5055209;28;1959;-71
2022/10/19 03:07:59;;;;;;;;;;;20.40;72.80;;;;;;5056394;28;904;-71
2022/10/19 03:10:25;;;;;;;;;;;20.40;72.80;;;;;;5058808;28;1013;-71
2022/10/19 03:12:50;;;;;;;;;;;20.30;72.80;;;;;;5058245;28;1127;-71
2022/10/19 03:15:16;;;;;;;;;;;20.40;72.80;;;;;;5062832;28;1353;-71
2022/10/19 03:17:41;;;;;;;;;;;20.30;72.80;;;;;;5059260;28;1280;-71
2022/10/19 03:20:07;;;;;;;;;;;20.40;72.80;;;;;;5058243;28;903;-71
2022/10/19 03:22:33;;;;;;;;;;;20.40;72.80;;;;;;5057245;28;971;-71
2022/10/19 03:24:58;;;;;;;;;;;20.30;72.80;;;;;;5056726;28;1957;-71
2022/10/19 03:27:23;;;;;;;;;;;20.40;72.80;;;;;;5057061;28;1390;-71
2022/10/19 03:29:49;;;;;;;;;;;20.30;72.80;;;;;;5056034;28;816;-71
2022/10/19 03:32:14;;;;;;;;;;;20.40;72.80;;;;;;5056573;28;1472;-70
2022/10/19 03:34:40;;;;;;;;;;;20.40;72.90;;;;;;5056035;28;918;-71
2022/10/19 03:37:05;;;;;;;;;;;20.40;72.80;;;;;;5057139;28;1258;-71
2022/10/19 03:39:31;;;;;;;;;;;20.30;72.80;;;;;;5057723;28;918;-71
2022/10/19 03:41:56;;;;;;;;;;;20.40;72.80;;;;;;5058655;28;918;-70
2022/10/19 03:44:21;;;;;;;;;;;20.40;72.80;;;;;;5055879;28;1979;-71
2022/10/19 03:46:47;;;;;;;;;;;20.40;72.80;;;;;;5054626;28;1306;-71
2022/10/19 03:49:12;;;;;;;;;;;20.40;72.80;;;;;;5056449;28;836;-71
2022/10/19 03:51:38;;;;;;;;;;;20.30;72.80;;;;;;5057297;28;891;-71
2022/10/19 03:54:04;;;;;;;;;;;20.40;72.80;;;;;;5056264;28;859;-71
2022/10/19 03:56:29;;;;;;;;;;;20.30;72.80;;;;;;5058514;28;1264;-71
2022/10/19 03:58:55;;;;;;;;;;;20.40;72.80;;;;;;5055411;28;915;-71
2022/10/19 04:01:21;;;;;;;;;;;20.40;72.80;;;;;;5054132;28;1017;-71
2022/10/19 04:03:47;;;;;;;;;;;20.30;72.80;;;;;;5058260;28;1902;-71
2022/10/19 04:06:16;;;;;;;;;;;20.30;72.80;;;;;;5057128;28;1273;-71
2022/10/19 04:08:41;;;;;;;;;;;20.40;72.90;;;;;;5059337;28;850;-71
2022/10/19 04:11:08;;;;;;;;;;;20.40;72.80;;;;;;5059658;28;1370;-71
2022/10/19 04:13:33;;;;;;;;;;;20.30;72.80;;;;;;5058045;28;1374;-71
2022/10/19 04:15:59;;;;;;;;;;;20.40;72.80;;;;;;5057507;28;1413;-71
2022/10/19 04:18:24;;;;;;;;;;;20.30;72.80;;;;;;5059765;28;1304;-71
2022/10/19 04:21:02;;;;;;;;;;;20.30;72.80;;;;;;5059124;28;919;-71
2022/10/19 04:23:29;;;;;;;;;;;20.30;72.80;;;;;;5059555;28;1960;-71
2022/10/19 04:26:03;;;;;;;;;;;20.30;72.80;;;;;;5061507;28;1279;-71
2022/10/19 04:28:29;;;;;;;;;;;20.40;72.90;;;;;;5060556;28;820;-71
2022/10/19 04:30:54;;;;;;;;;;;20.30;72.80;;;;;;5062779;28;980;-71
2022/10/19 04:33:19;;;;;;;;;;;20.30;72.80;;;;;;5062296;28;1444;-71
2022/10/19 04:35:45;;;;;;;;;;;20.30;72.80;;;;;;5058298;28;1373;-71
2022/10/19 04:38:10;;;;;;;;;;;20.30;72.80;;;;;;5057859;28;977;-71
2022/10/19 04:40:36;;;;;;;;;;;20.30;72.80;;;;;;5059405;28;903;-71
2022/10/19 04:43:02;;;;;;;;;;;20.30;73.50;;;;;;5063919;28;894;-71
2022/10/19 04:45:27;;;;;;;;;;;20.30;72.80;;;;;;5057773;28;1973;-71
2022/10/19 04:47:55;;;;;;;;;;;20.30;72.80;;;;;;5063247;28;1018;-71
2022/10/19 04:50:21;;;;;;;;;;;20.30;72.80;;;;;;5059866;28;931;-71
2022/10/19 04:52:46;;;;;;;;;;;20.30;72.80;;;;;;5060394;28;1054;-71
2022/10/19 04:55:12;;;;;;;;;;;20.30;72.80;;;;;;5063213;28;1259;-71
2022/10/19 04:57:37;;;;;;;;;;;20.30;72.80;;;;;;5061555;28;1295;-71
2022/10/19 05:00:03;;;;;;;;;;;20.40;72.90;;;;;;5060123;28;876;-71
2022/10/19 05:02:28;;;;;;;;;;;20.30;72.80;;;;;;5068668;28;1556;-71
2022/10/19 05:04:53;;;;;;;;;;;20.30;72.80;;;;;;5060723;28;1902;-71
2022/10/19 05:07:19;;;;;;;;;;;20.40;72.90;;;;;;5061119;28;1349;-71
2022/10/19 05:09:44;;;;;;;;;;;20.30;72.80;;;;;;5060806;28;950;-71
2022/10/19 05:12:10;;;;;;;;;;;20.30;72.80;;;;;;5062792;28;1334;-71
2022/10/19 05:14:36;;;;;;;;;;;20.40;72.80;;;;;;5061182;28;930;-70
2022/10/19 05:17:01;;;;;;;;;;;20.30;72.80;;;;;;5058695;28;2058;-69
2022/10/19 05:19:27;;;;;;;;;;;20.30;72.80;;;;;;5055038;28;1574;-71
2022/10/19 05:21:52;;;;;;;;;;;20.30;72.80;;;;;;5058384;28;1362;-71
2022/10/19 05:24:17;;;;;;;;;;;20.40;72.80;;;;;;5055466;28;1947;-71
2022/10/19 05:26:43;;;;;;;;;;;20.40;72.80;;;;;;5056379;28;1275;-72
2022/10/19 05:29:09;;;;;;;;;;;20.40;72.80;;;;;;5058473;28;1669;-72
2022/10/19 05:31:35;;;;;;;;;;;20.40;72.80;;;;;;5055733;28;1345;-72
2022/10/19 05:34:02;;;;;;;;;;;20.40;72.70;;;;;;5058214;28;872;-71
2022/10/19 05:36:31;;;;;;;;;;;20.40;72.70;;;;;;5060753;28;1282;-72
2022/10/19 05:38:56;;;;;;;;;;;20.40;72.70;;;;;;5050889;28;1526;-71
2022/10/19 05:41:22;;;;;;;;;;;20.40;72.60;;;;;;5057804;28;835;-71
2022/10/19 05:43:50;;;;;;;;;;;20.40;72.50;;;;;;5059762;28;1967;-71
2022/10/19 05:46:17;;;;;;;;;;;20.40;72.50;;;;;;5060495;28;1272;-72
2022/10/19 05:48:42;;;;;;;;;;;20.40;72.50;;;;;;5058706;28;942;-72
2022/10/19 05:51:09;;;;;;;;;;;20.40;72.50;;;;;;5058370;28;1022;-71
2022/10/19 05:53:37;;;;;;;;;;;20.40;73.20;;;;;;5059820;28;1017;-71
2022/10/19 05:56:03;;;;;;;;;;;20.40;72.40;;;;;;5055322;28;1342;-70
2022/10/19 05:58:29;;;;;;;;;;;20.50;72.40;;;;;;5055571;28;891;-70
2022/10/19 06:00:55;;;;;;;;;;;20.40;72.40;;;;;;5059522;28;846;-71
2022/10/19 06:03:21;;;;;;;;;;;20.40;72.30;;;;;;5060556;28;1894;-70
2022/10/19 06:05:47;;;;;;;;;;;20.40;72.30;;;;;;5054191;28;1260;-71
2022/10/19 06:08:12;;;;;;;;;;;20.50;72.30;;;;;;5059643;28;1053;-69
2022/10/19 06:10:38;;;;;;;;;;;20.50;72.30;;;;;;5061459;28;1001;-71
2022/10/19 06:13:03;;;;;;;;;;;20.50;72.20;;;;;;5060797;28;905;-70
2022/10/19 06:15:31;;;;;;;;;;;20.50;72.20;;;;;;5053543;28;1279;-70
2022/10/19 06:17:56;;;;;;;;;;;20.50;72.20;;;;;;5059437;28;1350;-71
2022/10/19 06:20:22;;;;;;;;;;;20.50;72.20;;;;;;5060711;28;1466;-71
2022/10/19 06:22:47;;;;;;;;;;;20.50;72.20;;;;;;5058286;28;895;-71
2022/10/19 06:25:13;;;;;;;;;;;20.50;72.10;;;;;;5059080;28;1938;-71
2022/10/19 06:27:38;;;;;;;;;;;20.50;72.10;;;;;;5057842;28;1014;-70
2022/10/19 06:30:04;;;;;;;;;;;20.50;72.10;;;;;;5057907;28;1062;-71
2022/10/19 06:32:31;;;;;;;;;;;20.60;72.20;;;;;;5058428;28;986;-72
2022/10/19 06:34:56;;;;;;;;;;;20.50;72.10;;;;;;5048935;28;1619;-72
2022/10/19 06:37:22;;;;;;;;;;;20.50;72.10;;;;;;5057411;28;1281;-72
2022/10/19 06:39:47;;;;;;;;;;;20.50;72.10;;;;;;5059665;28;872;-71
2022/10/19 06:42:12;;;;;;;;;;;20.50;72.10;;;;;;5057575;28;879;-71
2022/10/19 06:44:38;;;;;;;;;;;20.50;72.10;;;;;;5057785;28;1965;-70
2022/10/19 06:47:03;;;;;;;;;;;20.50;72.10;;;;;;5057099;28;1346;-72
2022/10/19 06:49:29;;;;;;;;;;;20.50;72.10;;;;;;5058261;28;876;-72
2022/10/19 06:51:54;;;;;;;;;;;20.50;72.10;;;;;;5057703;28;813;-71
2022/10/19 06:54:20;;;;;;;;;;;20.50;72.10;;;;;;5059215;28;887;-71
2022/10/19 06:56:45;;;;;;;;;;;20.50;72.10;;;;;;5057603;28;1247;-70
2022/10/19 06:59:12;;;;;;;;;;;20.50;72.10;;;;;;5058037;28;792;-70
2022/10/19 07:01:37;;;;;;;;;;;20.50;72.10;;;;;;5057116;28;983;-70
2022/10/19 07:04:03;;;;;;;;;;;20.50;72.10;;;;;;5059238;28;1902;-70
2022/10/19 07:06:28;;;;;;;;;;;20.50;72.10;;;;;;5053462;28;1255;-71
2022/10/19 07:08:54;;;;;;;;;;;20.50;72.10;;;;;;5059531;28;1010;-68
2022/10/19 07:11:19;;;;;;;;;;;20.50;72.10;;;;;;5056942;28;1022;-68
2022/10/19 07:13:45;;;;;;;;;;;20.50;72.10;;;;;;5054242;28;847;-68
2022/10/19 07:16:11;;;;;;;;;;;20.50;72.10;;;;;;5054239;28;1292;-70
2022/10/19 07:18:37;;;;;;;;;;;20.50;72.10;;;;;;5055113;28;1039;-70
2022/10/19 07:21:06;;;;;;;;;;;20.50;72.10;;;;;;5055837;28;977;-69
2022/10/19 07:23:32;;;;;;;;;;;20.50;72.10;;;;;;5051400;28;1894;-69
2022/10/19 07:26:02;;;;;;;;;;;20.50;72.10;;;;;;5057954;28;1390;-71
2022/10/19 07:28:28;;;;;;;;;;;20.50;72.10;;;;;;5055346;28;894;-71
2022/10/19 07:30:53;;;;;;;;;;;20.50;72.10;;;;;;5057536;28;815;-71
2022/10/19 07:33:19;;;;;;;;;;;20.50;72.10;;;;;;5054751;28;1030;-71
2022/10/19 07:35:44;;;;;;;;;;;20.50;72.10;;;;;;5057034;28;1243;-72
2022/10/19 07:38:10;;;;;;;;;;;20.50;72.10;;;;;;5053790;28;815;-71
2022/10/19 07:40:35;;;;;;;;;;;20.50;72.10;;;;;;5056142;28;822;-74
2022/10/19 07:43:01;;;;;;;;;;;20.50;72.10;;;;;;5053659;28;2003;-70
2022/10/19 07:45:26;;;;;;;;;;;20.50;72.10;;;;;;5057258;28;1933;-70
2022/10/19 07:47:51;;;;;;;;;;;20.50;72.10;;;;;;5058988;28;1194;-70
2022/10/19 07:50:17;;;;;;;;;;;20.50;72.10;;;;;;5057996;28;828;-70
2022/10/19 07:52:42;;;;;;;;;;;20.50;72.10;;;;;;5060738;28;934;-70
2022/10/19 07:55:08;;;;;;;;;;;20.50;72.10;;;;;;5058490;28;1251;-70
2022/10/19 07:57:34;;;;;;;;;;;20.50;72.10;;;;;;5060519;28;828;-70
2022/10/19 07:59:59;;;;;;;;;;;20.50;72.10;;;;;;5064101;28;936;-70
2022/10/19 08:02:25;;;;;;;;;;;20.50;72.10;;;;;;5062853;28;891;-70
2022/10/19 08:04:50;;;;;;;;;;;20.50;72.10;;;;;;5060262;28;1890;-70
2022/10/19 08:07:16;;;;;;;;;;;20.50;72.10;;;;;;5059226;28;1349;-70
2022/10/19 08:09:41;;;;;;;;;;;20.50;72.10;;;;;;5060352;28;1033;-70
2022/10/19 08:12:07;;;;;;;;;;;20.50;72.90;;;;;;5058674;28;804;-70
2022/10/19 08:14:32;;;;;;;;;;;20.50;72.10;;;;;;5058921;28;840;-69
2022/10/19 08:16:58;;;;;;;;;;;20.50;72.20;;;;;;5059978;28;1415;-70
2022/10/19 08:19:23;;;;;;;;;;;20.50;72.20;;;;;;5059861;28;818;-70
2022/10/19 08:21:49;;;;;;;;;;;20.50;72.20;;;;;;5062048;28;954;-70
2022/10/19 08:24:15;;;;;;;;;;;20.50;72.20;;;;;;5061572;28;1918;-70
2022/10/19 08:26:40;;;;;;;;;;;20.50;72.20;;;;;;5060801;28;1272;-70
2022/10/19 08:29:09;;;;;;;;;;;20.50;72.20;;;;;;5062127;28;856;-70
2022/10/19 08:31:35;;;;;;;;;;;20.50;72.20;;;;;;5059949;28;1442;-70
2022/10/19 08:34:01;;;;;;;;;;;20.50;72.20;;;;;;5061073;28;841;-70
2022/10/19 08:36:29;;;;;;;;;;;20.50;72.10;;;;;;5062017;28;1246;-70
2022/10/19 08:38:55;;;;;;;;;;;20.50;72.20;;;;;;5059643;28;834;-70
2022/10/19 08:41:24;;;;;;;;;;;20.50;72.20;;;;;;5057705;28;1241;-70
2022/10/19 08:44:09;;;;;;;;;;;20.50;72.20;;;;;;5057937;28;1898;-70
2022/10/19 08:46:53;;;;;;;;;;;20.50;72.20;;;;;;5035883;28;1294;-70
2022/10/19 08:49:19;;;;;;;;;;;20.50;72.20;;;;;;5057031;28;887;-70
2022/10/19 08:51:45;;;;;;;;;;;20.50;72.20;;;;;;5058039;28;1057;-70
2022/10/19 08:54:15;;;;;;;;;;;20.50;72.20;;;;;;5052017;28;942;-70
2022/10/19 08:56:46;;;;;;;;;;;20.50;72.20;;;;;;5056852;28;1339;-70
2022/10/19 08:59:13;;;;;;;;;;;20.50;72.20;;;;;;5059558;28;970;-69
2022/10/19 09:01:39;;;;;;;;;;;20.50;72.20;;;;;;5057391;28;815;-70
2022/10/19 09:04:07;;;;;;;;;;;20.50;72.20;;;;;;5057714;28;1898;-70
2022/10/19 09:06:33;;;;;;;;;;;20.50;72.90;;;;;;5059170;28;1268;-70
2022/10/19 09:08:59;;;;;;;;;;;20.50;72.20;;;;;;5059902;28;1014;-70
2022/10/19 09:11:28;;;;;;;;;;;20.40;72.10;;;;;;5057283;28;799;-70
2022/10/19 09:13:56;;;;;;;;;;;20.50;72.20;;;;;;5061012;28;895;-70
2022/10/19 09:16:22;;;;;;;;;;;20.50;72.20;;;;;;5062238;28;1272;-70
2022/10/19 09:18:48;;;;;;;;;;;20.50;72.20;;;;;;5059415;28;869;-70
2022/10/19 09:21:14;;;;;;;;;;;20.50;72.20;;;;;;5061037;28;870;-71
2022/10/19 09:23:44;;;;;;;;;;;20.50;72.20;;;;;;5057630;28;1961;-69
2022/10/19 09:26:11;;;;;;;;;;;20.50;72.20;;;;;;5056265;28;1411;-70
2022/10/19 09:28:57;;;;;;;;;;;20.50;72.30;;;;;;5057638;28;878;-70
2022/10/19 09:31:25;;;;;;;;;;;20.50;72.20;;;;;;5059274;28;1391;-70
2022/10/19 09:33:54;;;;;;;;;;;20.50;72.00;;;;;;5057938;28;859;-70
2022/10/19 09:36:19;;;;;;;;;;;20.50;71.80;;;;;;5057192;28;1287;-70
2022/10/19 09:38:45;;;;;;;;;;;20.50;70.00;;;;;;5060129;28;855;-71
2022/10/19 09:41:12;;;;;;;;;;;20.50;67.50;;;;;;5060553;28;1417;-69
2022/10/19 09:43:38;;;;;;;;;;;20.50;66.70;;;;;;5059733;28;1969;-70
2022/10/19 09:46:14;;;;;;;;;;;20.50;65.80;;;;;;5064980;28;1343;-71
2022/10/19 09:48:51;;;;;;;;;;;20.50;65.00;;;;;;5060051;28;913;-71
2022/10/19 09:51:17;;;;;;;;;;;20.40;64.80;;;;;;5058878;28;1612;-70
2022/10/19 09:53:49;;;;;;;;;;;20.40;65.00;;;;;;5057467;28;855;-71
2022/10/19 09:56:18;;;;;;;;;;;20.40;64.90;;;;;;5061037;28;1489;-70
2022/10/19 09:59:01;;;;;;;;;;;20.40;64.40;;;;;;5057724;28;816;-71
2022/10/19 10:01:36;;;;;;;;;;;20.40;64.10;;;;;;5057955;28;1330;-69
2022/10/19 10:04:05;;;;;;;;;;;20.30;63.10;;;;;;5058896;28;1953;-72
2022/10/19 10:06:31;;;;;;;;;;;20.30;62.40;;;;;;5047539;28;2000;-71
2022/10/19 10:08:57;;;;;;;;;;;20.30;62.10;;;;;;5062137;28;1549;-71
2022/10/19 10:11:26;;;;;;;;;;;20.30;62.30;;;;;;5059162;28;1277;-72
2022/10/19 10:13:52;;;;;;;;;;;20.20;62.10;;;;;;5056199;28;959;-71
2022/10/19 10:16:19;;;;;;;;;;;20.30;62.10;;;;;;5055528;28;1776;-72
2022/10/19 10:18:53;;;;;;;;;;;20.20;61.40;;;;;;5056444;28;906;-72
2022/10/19 10:21:22;;;;;;;;;;;20.20;61.10;;;;;;5057241;28;815;-72
2022/10/19 10:23:58;;;;;;;;;;;20.20;60.50;;;;;;5056588;28;1906;-71
2022/10/19 10:26:23;;;;;;;;;;;20.20;60.70;;;;;;5054821;28;1247;-71
2022/10/19 10:28:49;;;;;;;;;;;20.10;60.20;;;;;;5051507;28;963;-71
2022/10/19 10:31:14;;;;;;;;;;;20.10;59.80;;;;;;5058577;28;1351;-71
2022/10/19 10:33:40;;;;;;;;;;;20.10;59.40;;;;;;5060667;28;1042;-72
2022/10/19 10:36:08;;;;;;;;;;;20.10;59.20;;;;;;5058129;28;1346;-71
2022/10/19 10:38:34;;;;;;;;;;;20.10;58.70;;;;;;5066204;28;1347;-71
2022/10/19 10:41:06;;;;;;;;;;;20.10;58.40;;;;;;5061128;28;824;-72
2022/10/19 10:43:32;;;;;;;;;;;20.00;58.60;;;;;;5055677;28;1906;-71
2022/10/19 10:46:03;;;;;;;;;;;20.00;58.50;;;;;;5058195;28;1374;-71
2022/10/19 10:48:31;;;;;;;;;;;20.00;58.70;;;;;;5059385;28;1006;-70
2022/10/19 10:50:57;;;;;;;;;;;20.00;59.30;;;;;;5059901;28;959;-71
2022/10/19 10:53:34;;;;;;;;;;;20.00;59.70;;;;;;5060811;28;1402;-71
2022/10/19 10:56:00;;;;;;;;;;;20.00;60.10;;;;;;5056520;28;1276;-71
2022/10/19 10:58:35;;;;;;;;;;;20.10;60.40;;;;;;5054771;28;879;-71
2022/10/19 11:01:00;;;;;;;;;;;20.10;60.70;;;;;;5058961;28;835;-70
2022/10/19 11:03:27;;;;;;;;;;;20.10;60.90;;;;;;5057475;28;935;-71
2022/10/19 11:05:54;;;;;;;;;;;20.10;61.50;;;;;;5057060;28;1910;-71
2022/10/19 11:08:37;;;;;;;;;;;20.10;61.70;;;;;;5059499;28;900;-71
2022/10/19 11:11:09;;;;;;;;;;;20.10;62.00;;;;;;5062092;28;855;-71
2022/10/19 11:13:40;;;;;;;;;;;20.10;62.30;;;;;;5063184;28;837;-71
2022/10/19 11:16:10;;;;;;;;;;;20.10;62.50;;;;;;5057139;28;1369;-71
2022/10/19 11:18:37;;;;;;;;;;;20.10;62.70;;;;;;5061804;28;1306;-70
2022/10/19 11:21:09;;;;;;;;;;;20.10;62.80;;;;;;5059825;28;1432;-71
2022/10/19 11:23:50;;;;;;;;;;;20.10;63.10;;;;;;5055977;28;1973;-71
2022/10/19 11:26:31;;;;;;;;;;;20.10;63.20;;;;;;5060429;28;1282;-70
2022/10/19 11:28:59;;;;;;;;;;;20.10;63.30;;;;;;5056180;28;973;-69
2022/10/19 11:31:29;;;;;;;;;;;20.10;63.90;;;;;;5057648;28;1421;-69
2022/10/19 11:34:03;;;;;;;;;;;20.10;65.00;;;;;;5055555;28;1030;-69
2022/10/19 11:36:35;;;;;;;;;;;20.20;65.40;;;;;;5055575;28;1415;-69
2022/10/19 11:39:06;;;;;;;;;;;20.20;65.50;;;;;;5056074;28;1175;-69
2022/10/19 11:41:38;;;;;;;;;;;20.20;64.90;;;;;;5057179;28;1108;-69
2022/10/19 11:44:24;;;;;;;;;;;20.20;65.60;;;;;;5059160;28;1898;-69
2022/10/19 11:46:58;;;;;;;;;;;20.20;65.40;;;;;;5059472;28;1241;-69
2022/10/19 11:49:30;;;;;;;;;;;20.20;65.40;;;;;;5060134;28;844;-69
2022/10/19 11:52:08;;;;;;;;;;;20.20;65.40;;;;;;5058001;28;905;-69
2022/10/19 11:54:33;;;;;;;;;;;20.20;65.30;;;;;;5045889;28;978;-70
2022/10/19 11:57:01;;;;;;;;;;;20.20;65.40;;;;;;5054045;28;1262;-69
2022/10/19 11:59:30;;;;;;;;;;;20.20;65.50;;;;;;5052136;28;880;-70
2022/10/19 12:01:59;;;;;;;;;;;20.30;65.60;;;;;;5053749;28;1058;-70
2022/10/19 12:04:24;;;;;;;;;;;20.20;65.70;;;;;;5053075;28;1902;-69
2022/10/19 12:06:52;;;;;;;;;;;20.20;65.80;;;;;;5056319;28;1397;-69
2022/10/19 12:09:21;;;;;;;;;;;20.20;65.90;;;;;;5055198;28;994;-69
2022/10/19 12:11:58;;;;;;;;;;;20.20;65.90;;;;;;5060861;28;1559;-69
2022/10/19 12:14:25;;;;;;;;;;;20.20;66.00;;;;;;5056796;28;1054;-70
2022/10/19 12:16:54;;;;;;;;;;;20.20;66.10;;;;;;5055607;28;1279;-69
2022/10/19 12:19:30;;;;;;;;;;;20.20;66.20;;;;;;5064501;28;1352;-69
2022/10/19 12:21:59;;;;;;;;;;;20.20;66.20;;;;;;5050936;28;935;-71
2022/10/19 12:24:25;;;;;;;;;;;20.20;66.20;;;;;;5053396;28;1941;-71
2022/10/19 12:26:50;;;;;;;;;;;20.20;66.30;;;;;;5057133;28;1301;-71
2022/10/19 12:29:34;;;;;;;;;;;20.20;66.40;;;;;;5057672;28;1052;-72
2022/10/19 12:32:00;;;;;;;;;;;20.20;66.50;;;;;;5055938;28;1404;-71
2022/10/19 12:34:30;;;;;;;;;;;20.20;66.50;;;;;;5062178;28;1286;-71
2022/10/19 12:37:03;;;;;;;;;;;20.20;66.60;;;;;;5062437;28;1275;-70
2022/10/19 12:39:41;;;;;;;;;;;20.30;66.80;;;;;;5062583;28;1302;-71
2022/10/19 12:42:25;;;;;;;;;;;20.30;66.80;;;;;;5059758;28;939;-69
2022/10/19 12:45:10;;;;;;;;;;;20.20;66.80;;;;;;5058746;28;1902;-70
2022/10/19 12:47:36;;;;;;;;;;;20.20;66.90;;;;;;5063293;28;839;-70
2022/10/19 12:50:02;;;;;;;;;;;20.20;66.90;;;;;;5063635;28;812;-70
2022/10/19 12:52:44;;;;;;;;;;;20.20;66.90;;;;;;5062462;28;959;-70
2022/10/19 12:55:15;;;;;;;;;;;20.20;67.00;;;;;;5060435;28;1346;-69
2022/10/19 12:57:47;;;;;;;;;;;20.20;67.10;;;;;;5060412;28;1034;-69
2022/10/19 13:00:18;;;;;;;;;;;20.20;67.10;;;;;;5057947;28;916;-71
2022/10/19 13:02:44;;;;;;;;;;;20.20;67.20;;;;;;5060424;28;853;-71
2022/10/19 13:05:18;;;;;;;;;;;20.20;67.20;;;;;;5058956;28;1947;-71
2022/10/19 13:07:43;;;;;;;;;;;20.20;67.20;;;;;;5059727;28;918;-71
2022/10/19 13:10:13;;;;;;;;;;;20.20;67.30;;;;;;5058671;28;1279;-71
2022/10/19 13:12:40;;;;;;;;;;;20.20;67.50;;;;;;5060640;28;1395;-71
2022/10/19 13:15:08;;;;;;;;;;;20.20;67.40;;;;;;5057336;28;897;-71
2022/10/19 13:17:36;;;;;;;;;;;20.20;67.70;;;;;;5061625;28;1519;-71
2022/10/19 13:20:14;;;;;;;;;;;20.20;67.50;;;;;;5063382;28;924;-70
2022/10/19 13:22:45;;;;;;;;;;;20.20;67.50;;;;;;5058217;28;870;-71
2022/10/19 13:25:26;;;;;;;;;;;20.20;67.60;;;;;;5059669;28;2020;-70
2022/10/19 13:28:13;;;;;;;;;;;20.20;67.60;;;;;;5061412;28;892;-71
2022/10/19 13:30:42;;;;;;;;;;;20.20;67.60;;;;;;5052164;28;1124;-71
2022/10/19 13:33:30;;;;;;;;;;;20.20;67.60;;;;;;5061967;28;1380;-71
2022/10/19 13:35:58;;;;;;;;;;;20.20;67.70;;;;;;5058555;28;1297;-71
2022/10/19 13:38:29;;;;;;;;;;;20.20;67.80;;;;;;5058157;28;2151;-70
2022/10/19 13:40:55;;;;;;;;;;;20.20;67.70;;;;;;5066102;28;1178;-70
2022/10/19 13:43:24;;;;;;;;;;;20.20;67.80;;;;;;5058069;28;2320;-70
2022/10/19 13:45:53;;;;;;;;;;;20.20;67.80;;;;;;5056974;28;2263;-70
2022/10/19 13:48:22;;;;;;;;;;;20.20;67.80;;;;;;5058922;28;1422;-70
2022/10/19 13:50:56;;;;;;;;;;;20.20;67.90;;;;;;5057540;28;1378;-70
2022/10/19 13:53:30;;;;;;;;;;;20.20;67.90;;;;;;5057055;28;931;-70
2022/10/19 13:55:56;;;;;;;;;;;20.20;67.90;;;;;;5060446;28;1260;-70
2022/10/19 13:58:40;;;;;;;;;;;20.20;67.90;;;;;;5062135;28;901;-70
2022/10/19 14:01:05;;;;;;;;;;;20.20;68.00;;;;;;5058513;28;1036;-70
2022/10/19 14:03:37;;;;;;;;;;;20.20;68.00;;;;;;5059543;28;1296;-71
2022/10/19 14:06:06;;;;;;;;;;;20.30;68.10;;;;;;5058934;28;1889;-71
2022/10/19 14:08:50;;;;;;;;;;;20.20;68.00;;;;;;5058912;28;1874;-70
2022/10/19 14:11:16;;;;;;;;;;;20.20;68.00;;;;;;5061646;28;1971;-71
2022/10/19 14:13:42;;;;;;;;;;;20.20;68.00;;;;;;5062234;28;1477;-70
2022/10/19 14:16:15;;;;;;;;;;;20.20;68.00;;;;;;5058530;28;1208;-71
2022/10/19 14:18:40;;;;;;;;;;;20.20;68.10;;;;;;5042848;28;1412;-71
2022/10/19 14:21:06;;;;;;;;;;;20.20;68.10;;;;;;5060882;28;926;-71
2022/10/19 14:23:33;;;;;;;;;;;20.20;68.10;;;;;;5053096;28;1611;-70
2022/10/19 14:26:15;;;;;;;;;;;20.20;68.20;;;;;;5059017;28;1902;-70
2022/10/19 14:28:41;;;;;;;;;;;20.20;68.90;;;;;;5059792;28;926;-70
2022/10/19 14:31:07;;;;;;;;;;;20.20;68.20;;;;;;5059517;28;914;-72
2022/10/19 14:33:39;;;;;;;;;;;20.20;68.30;;;;;;5057985;28;1556;-70
2022/10/19 14:36:25;;;;;;;;;;;20.20;68.30;;;;;;5057179;28;1291;-72
2022/10/19 14:38:52;;;;;;;;;;;20.20;68.30;;;;;;5057958;28;1644;-70
2022/10/19 14:41:17;;;;;;;;;;;20.20;68.30;;;;;;5058516;28;891;-72